Rifle, Colorado
Current Conditions -  °F | °C
As of 8:53 PM on Monday 20 Oct 2014 (Local Time) from KRIL Reporting Station
Clear Clear  
Wind Chill: 54°   Ceiling: Unl
Heat Index: 54°   Visibility: 10mi
Dew Point: 38°   Wind: 7mph
Humidity: 55%   Direction: 140°SE
Pressure: 30.09"   Gusts: NA
Location:  39.53°N, 107.78°W
Report Text: KRIL 210253Z AUTO 14006KT 10SM CLR 12/03 A3009 RMK AO2 SLP165 60000 T01220033 53006
Loading
Personal Weather Stations






























Interactive Weather Map
Tropical Storm Tracking
New forecast layout! Learn more

10-Day Weather Forecast

Advertisements
Track Severe Weather on mobile